Hunnewell, MO

3:24 PM CDT on August 30, 2014 (GMT -0500)
North Eastern Ralls County WB2UFO | Change Station
CLOSE
Current Station
Personal Weather Station
Location: New London, MO
Elevation: 700 ft
Nearby Weather Stations

Elev 700 ft 39.64 °N, 91.44 °W | Updated 38 seconds ago

Clear
Clear
85.5 °F
Feels Like 93 °F
N
1.0
Wind Variable Wind from SW
Gusts 7.0 mph

Today
High -- | Low -- °F
--% Chance of Precip.
Yesterday
High -- | Low -- °F
Precip. -- in
6:33 AM 7:41 PM
Waxing Crescent, 24% visible
Pressure 29.90 in
Visibility 10.0 miles
Clouds Scattered Clouds 3200 ft
Heat Index 93 °F
Dew Point 74 °F
Humidity 68%
Rainfall 0.00 in
Snow Depth Not available.
UV 6 out of 12
Pollen 6.40 out of 12
Air Quality Not available.
Flu Activity Not available.
METAR KHAE 301955Z AUTO 25007KT 10SM SCT032 31/19 A2990 RMK AO2

More Conditions Fewer Conditions

Pressure 29.90 in
Visibility 10.0 miles
Clouds Scattered Clouds 3200 ft
Heat Index 93 °F
Dew Point 74 °F
Humidity 68%
Rainfall 0.00 in
Snow Depth Not available.
UV 6 out of 12
Pollen 6.40 out of 12
Air Quality Not available.
Flu Activity Not available.
METAR KHAE 301955Z AUTO 25007KT 10SM SCT032 31/19 A2990 RMK AO2

More Conditions Fewer Conditions

10-Day Weather Forecast

Almanac

Astronomy

Aug. 30, 2014 Rise Set
Actual Time 6:33 AM CDT 7:41 PM CDT
Civil Twilight 6:05 AM CDT 8:09 PM CDT
Nautical Twilight 5:32 AM CDT 8:42 PM CDT
Astronomical Twilight 4:58 AM CDT 9:16 PM CDT
Moon 11:20 AM CDT 10:17 PM CDT
Length of Visible Light 14h 03m
Length of Day
13h 07m
Tomorrow will be 2m 29s shorter.
Waxing Crescent, 24% of the Moon is Illuminated
Today
Waxing Crescent
Sep 2
First Quarter
Sep 8
Full
Sep 15
Last Quarter
Sep 24
New

Today's Extremes

State Highs State Lows

Community

WunderPhotos

Upload Photos

1,748,622 photos uploaded!

WunderBlogs® & News

Nearby

Snow Depth

Station Depth Elevation
No new snow has been reported.

Earthquake Activity

City Distance Mag. Time & Date
No recent earthquake activity has been reported nearby.
Minimum magnitude displayed is 2.5.

Coastal Water Temperatures

Place Temperature
No Stations Reporting

Nearby Weather Stations